createdAt,value
2023-04-19T00:00:59.402Z,4.35
2023-04-19T00:03:26.464Z,4.47
2023-04-19T00:05:54.425Z,5.10
2023-04-19T00:08:21.548Z,5.38
2023-04-19T00:10:48.301Z,4.78
2023-04-19T00:13:15.781Z,4.22
2023-04-19T00:15:42.632Z,4.40
2023-04-19T00:18:09.600Z,4.55
2023-04-19T00:20:36.816Z,4.90
2023-04-19T00:23:03.856Z,4.90
2023-04-19T00:25:32.032Z,4.55
2023-04-19T00:27:58.869Z,4.88
2023-04-19T00:30:27.259Z,5.32
2023-04-19T00:32:54.166Z,5.28
2023-04-19T00:35:21.404Z,5.10
2023-04-19T00:37:48.996Z,5.50
2023-04-19T00:40:16.234Z,4.97
2023-04-19T00:42:43.308Z,5.80
2023-04-19T00:45:12.799Z,6.25
2023-04-19T00:47:39.803Z,6.45
2023-04-19T00:50:07.686Z,6.60
2023-04-19T00:52:34.869Z,6.47
2023-04-19T00:55:03.198Z,7.15
2023-04-19T00:57:32.353Z,7.88
2023-04-19T01:00:00.769Z,9.07
2023-04-19T01:02:33.279Z,8.13
2023-04-19T01:05:00.648Z,9.18
2023-04-19T01:07:27.809Z,10.32
2023-04-19T01:09:54.818Z,8.95
2023-04-19T01:12:23.188Z,10.13
2023-04-19T01:14:51.061Z,10.82
2023-04-19T01:17:19.562Z,11.07
2023-04-19T01:19:46.702Z,10.98
2023-04-19T01:22:22.951Z,10.80
2023-04-19T01:24:50.309Z,11.35
2023-04-19T01:27:17.675Z,12.50
2023-04-19T01:29:44.870Z,12.13
2023-04-19T01:32:13.909Z,13.52
2023-04-19T01:34:42.136Z,12.57
2023-04-19T01:37:09.239Z,13.68
2023-04-19T01:39:36.120Z,13.95
2023-04-19T01:42:03.177Z,13.60
2023-04-19T01:44:30.676Z,14.43
2023-04-19T01:46:57.635Z,14.20
2023-04-19T01:49:24.643Z,14.38
2023-04-19T01:51:51.614Z,14.25
2023-04-19T01:54:18.471Z,15.27
2023-04-19T01:56:45.338Z,15.50
2023-04-19T01:59:12.588Z,15.18
2023-04-19T02:01:40.011Z,14.82
2023-04-19T02:04:08.094Z,16.77
2023-04-19T02:06:38.068Z,16.25
2023-04-19T02:09:05.156Z,15.27
2023-04-19T02:11:32.128Z,15.30
2023-04-19T02:13:59.023Z,16.40
2023-04-19T02:16:27.997Z,16.95
2023-04-19T02:18:55.012Z,16.30
2023-04-19T02:21:22.046Z,16.77
2023-04-19T02:23:48.855Z,17.08
2023-04-19T02:26:15.687Z,16.98
2023-04-19T02:28:43.582Z,16.77
2023-04-19T02:31:12.727Z,18.40
2023-04-19T02:33:39.962Z,18.27
2023-04-19T02:36:07.207Z,17.30
2023-04-19T02:38:34.273Z,18.88
2023-04-19T02:41:04.397Z,17.27
2023-04-19T02:43:32.009Z,18.65
2023-04-19T02:45:58.968Z,17.58
2023-04-19T02:48:26.190Z,19.05
2023-04-19T02:50:53.695Z,17.50
2023-04-19T02:53:21.575Z,18.27
2023-04-19T02:55:52.077Z,17.95
2023-04-19T02:58:20.168Z,19.30
2023-04-19T03:01:07.111Z,18.63
2023-04-19T03:03:34.175Z,17.75
2023-04-19T03:06:01.342Z,17.70
2023-04-19T03:08:29.538Z,18.50
2023-04-19T03:10:56.523Z,17.40
2023-04-19T03:13:23.338Z,17.75
2023-04-19T03:15:50.802Z,17.83
2023-04-19T03:18:21.748Z,18.40
2023-04-19T03:20:48.577Z,18.10
2023-04-19T03:23:16.485Z,18.15
2023-04-19T03:25:46.983Z,17.85
2023-04-19T03:28:23.655Z,18.13
2023-04-19T03:31:09.063Z,17.80
2023-04-19T03:33:36.961Z,17.55
2023-04-19T03:36:04.284Z,18.02
2023-04-19T03:38:31.555Z,18.23
2023-04-19T03:40:59.286Z,18.98
2023-04-19T03:43:29.289Z,19.33
2023-04-19T03:45:56.186Z,19.17
2023-04-19T03:48:22.968Z,18.30
2023-04-19T03:50:50.248Z,19.65
2023-04-19T03:53:19.010Z,18.75
2023-04-19T03:55:46.032Z,19.15
2023-04-19T03:58:13.078Z,20.48
2023-04-19T04:01:04.028Z,21.38
2023-04-19T04:03:31.678Z,21.15
2023-04-19T04:05:58.705Z,22.08
2023-04-19T04:08:25.619Z,22.52
2023-04-19T04:10:55.743Z,22.83
2023-04-19T04:13:25.249Z,21.95
2023-04-19T04:16:04.227Z,23.73
2023-04-19T04:18:34.504Z,22.55
2023-04-19T04:21:04.610Z,22.00
2023-04-19T04:23:37.857Z,23.17
2023-04-19T04:26:10.148Z,22.60
2023-04-19T04:28:53.819Z,21.90
2023-04-19T04:31:21.213Z,21.88
2023-04-19T04:33:48.402Z,22.92
2023-04-19T04:36:18.737Z,21.67
2023-04-19T04:38:45.950Z,20.85
2023-04-19T04:41:12.908Z,22.60
2023-04-19T04:43:39.787Z,22.25
2023-04-19T04:46:06.837Z,23.00
2023-04-19T04:48:38.273Z,21.35
2023-04-19T04:51:06.173Z,22.55
2023-04-19T04:53:34.355Z,24.40
2023-04-19T04:56:04.035Z,23.30
2023-04-19T04:58:31.662Z,24.45
2023-04-19T05:01:10.045Z,45.28
2023-04-19T05:03:40.105Z,24.98
2023-04-19T05:06:11.696Z,25.63
2023-04-19T05:08:38.896Z,25.88
2023-04-19T05:11:15.240Z,24.20
2023-04-19T05:13:43.094Z,23.42
2023-04-19T05:16:10.243Z,23.17
2023-04-19T05:18:39.417Z,23.90
2023-04-19T05:21:08.324Z,23.30
2023-04-19T05:23:36.714Z,23.60
2023-04-19T05:26:04.015Z,22.75
2023-04-19T05:28:31.452Z,24.58
2023-04-19T05:31:05.312Z,23.70
2023-04-19T05:33:39.252Z,22.73
2023-04-19T05:36:06.664Z,22.33
2023-04-19T05:38:34.315Z,22.77
2023-04-19T05:41:03.268Z,21.45
2023-04-19T05:43:32.885Z,22.42
2023-04-19T05:46:00.808Z,22.45
2023-04-19T05:48:28.964Z,21.33
2023-04-19T05:51:08.108Z,21.75
2023-04-19T05:54:01.459Z,21.65
2023-04-19T05:56:30.602Z,21.25
2023-04-19T05:58:57.877Z,21.48
2023-04-19T06:01:25.052Z,21.38
2023-04-19T06:03:53.762Z,22.23
2023-04-19T06:06:24.882Z,22.65
2023-04-19T06:08:54.443Z,20.60
2023-04-19T06:11:28.872Z,20.40
2023-04-19T06:13:58.875Z,23.30
2023-04-19T06:16:26.987Z,23.52
2023-04-19T06:18:57.203Z,23.50
2023-04-19T06:21:25.431Z,23.92
2023-04-19T06:23:52.380Z,24.15
2023-04-19T06:26:21.830Z,21.85
2023-04-19T06:28:49.790Z,22.40
2023-04-19T06:31:16.797Z,20.88
2023-04-19T06:33:43.955Z,20.70
2023-04-19T06:36:10.986Z,22.17
2023-04-19T06:38:38.567Z,20.88
2023-04-19T06:41:05.802Z,19.98
2023-04-19T06:43:32.606Z,21.15
2023-04-19T06:46:03.195Z,22.33
2023-04-19T06:48:30.909Z,22.95
2023-04-19T06:50:57.785Z,21.30
2023-04-19T06:53:24.876Z,24.10
2023-04-19T06:55:59.128Z,22.17
2023-04-19T06:58:25.995Z,23.08
2023-04-19T07:00:53.302Z,28.67
2023-04-19T07:03:20.754Z,21.77
2023-04-19T07:05:48.061Z,25.70
2023-04-19T07:08:14.989Z,22.88
2023-04-19T07:10:43.841Z,21.33
2023-04-19T07:13:13.798Z,22.50
2023-04-19T07:15:40.759Z,21.02
2023-04-19T07:18:07.713Z,21.83
2023-04-19T07:20:34.809Z,22.15
2023-04-19T07:23:01.751Z,23.88
2023-04-19T07:25:29.573Z,22.05
2023-04-19T07:27:57.333Z,22.05
2023-04-19T07:30:24.848Z,24.58
2023-04-19T07:32:53.701Z,23.92
2023-04-19T07:35:20.925Z,25.27
2023-04-19T07:37:47.974Z,24.95
2023-04-19T07:40:15.351Z,23.73
2023-04-19T07:42:44.380Z,24.98
2023-04-19T07:45:12.104Z,24.17
2023-04-19T07:47:39.093Z,22.52
2023-04-19T07:50:07.794Z,22.85
2023-04-19T07:52:34.858Z,24.40
2023-04-19T07:55:01.881Z,24.35
2023-04-19T07:57:33.241Z,23.42
2023-04-19T08:00:02.342Z,24.33
2023-04-19T08:02:34.412Z,23.15
2023-04-19T08:05:02.534Z,23.00
2023-04-19T08:07:35.519Z,22.60
2023-04-19T08:10:17.108Z,22.38
2023-04-19T08:13:03.796Z,22.50
2023-04-19T08:18:13.266Z,21.05
2023-04-19T08:20:47.430Z,20.90
2023-04-19T08:23:25.973Z,21.53
2023-04-19T08:26:01.187Z,19.88
2023-04-19T08:28:30.124Z,20.48
2023-04-19T08:30:58.969Z,20.05
2023-04-19T08:33:25.748Z,17.38
2023-04-19T08:35:52.596Z,18.35
2023-04-19T08:38:19.571Z,19.17
2023-04-19T08:40:53.321Z,16.90
2023-04-19T08:43:20.836Z,17.58
2023-04-19T08:45:50.002Z,16.58
2023-04-19T08:48:18.340Z,16.38
2023-04-19T08:51:04.121Z,14.98
2023-04-19T08:53:36.013Z,15.18
2023-04-19T08:56:15.216Z,14.30
2023-04-19T08:59:03.938Z,15.32
2023-04-19T09:01:37.143Z,16.35
2023-04-19T09:04:21.552Z,16.45
2023-04-19T09:06:55.822Z,15.68
2023-04-19T09:11:58.521Z,16.40
2023-04-19T09:14:27.112Z,16.25
2023-04-19T09:16:54.263Z,16.73
2023-04-19T09:19:24.656Z,15.65
2023-04-19T09:21:54.530Z,16.85
2023-04-19T09:27:12.335Z,16.42
2023-04-19T09:29:40.800Z,17.48
2023-04-19T09:32:08.284Z,16.65
2023-04-19T09:34:35.270Z,17.48
2023-04-19T09:37:21.530Z,18.42
2023-04-19T09:40:00.417Z,17.90
2023-04-19T09:48:00.292Z,14.38
2023-04-19T09:52:55.627Z,5.82
2023-04-19T09:55:27.759Z,5.20
2023-04-19T09:57:56.158Z,5.30
2023-04-19T10:00:23.432Z,4.10
2023-04-19T10:02:58.449Z,4.03
2023-04-19T10:05:26.718Z,3.20
2023-04-19T10:07:59.620Z,2.72
2023-04-19T10:15:49.491Z,2.60
2023-04-19T10:18:18.563Z,2.40
2023-04-19T10:20:54.173Z,8.38
2023-04-19T10:23:22.628Z,3.05
2023-04-19T10:25:55.900Z,2.70
2023-04-19T10:28:23.107Z,2.20
2023-04-19T10:31:01.962Z,2.83
2023-04-19T10:33:37.719Z,2.95
2023-04-19T10:36:08.875Z,2.85
2023-04-19T10:38:48.239Z,2.72
2023-04-19T10:41:19.313Z,2.97
2023-04-19T10:43:58.542Z,2.72
2023-04-19T10:46:38.469Z,2.80
2023-04-19T10:49:07.885Z,3.35
2023-04-19T10:51:36.667Z,3.00
2023-04-19T10:54:07.618Z,3.35
2023-04-19T10:56:34.606Z,3.53
2023-04-19T10:59:05.377Z,3.63
2023-04-19T11:01:40.768Z,4.55
2023-04-19T11:04:12.444Z,3.63
2023-04-19T11:06:55.318Z,3.40
2023-04-19T11:09:26.843Z,3.30
2023-04-19T11:11:57.793Z,3.83
2023-04-19T11:14:25.390Z,5.07
2023-04-19T11:16:52.310Z,4.40
2023-04-19T11:19:20.456Z,4.88
2023-04-19T11:21:48.443Z,5.38
2023-04-19T11:24:18.614Z,5.13
2023-04-19T11:26:46.704Z,5.40
2023-04-19T11:29:13.838Z,4.65
2023-04-19T11:31:43.791Z,4.93
2023-04-19T11:34:10.796Z,4.60
2023-04-19T11:36:48.796Z,4.90
2023-04-19T11:39:16.823Z,5.55
2023-04-19T11:41:43.679Z,5.07
2023-04-19T11:44:15.489Z,5.45
2023-04-19T11:46:43.527Z,4.88
2023-04-19T11:49:10.633Z,5.03
2023-04-19T11:51:42.896Z,5.43
2023-04-19T11:54:17.240Z,5.10
2023-04-19T11:57:09.515Z,4.90
2023-04-19T11:59:37.345Z,5.00
2023-04-19T12:02:12.323Z,5.03
2023-04-19T12:04:41.064Z,4.72
2023-04-19T12:07:10.599Z,4.90
2023-04-19T12:09:38.660Z,5.15
2023-04-19T12:12:08.358Z,4.82
2023-04-19T12:14:35.518Z,4.65
2023-04-19T12:17:14.770Z,4.10
2023-04-19T12:19:46.862Z,3.67
2023-04-19T12:22:16.858Z,4.57
2023-04-19T12:24:43.948Z,4.07
2023-04-19T12:27:11.658Z,4.93
2023-04-19T12:29:41.213Z,4.60
2023-04-19T12:32:08.205Z,4.50
2023-04-19T12:34:35.068Z,4.45
2023-04-19T12:37:04.465Z,4.18
2023-04-19T12:39:32.605Z,4.35
2023-04-19T12:41:59.536Z,4.78
2023-04-19T12:44:26.733Z,4.68
2023-04-19T12:46:57.763Z,4.85
2023-04-19T12:49:24.904Z,4.43
2023-04-19T12:51:51.713Z,3.30
2023-04-19T12:54:18.491Z,3.60
2023-04-19T12:56:45.463Z,2.90
2023-04-19T12:59:12.282Z,3.13
2023-04-19T13:01:39.913Z,2.85
2023-04-19T13:04:09.163Z,2.97
2023-04-19T13:06:36.372Z,2.85
2023-04-19T13:09:13.644Z,3.15
2023-04-19T13:11:41.443Z,3.55
2023-04-19T13:14:08.288Z,3.40
2023-04-19T13:16:35.235Z,3.55
2023-04-19T13:19:02.327Z,3.10
2023-04-19T13:21:29.243Z,3.25
2023-04-19T13:23:58.307Z,4.63
2023-04-19T13:26:28.906Z,3.95
2023-04-19T13:28:56.621Z,4.38
2023-04-19T13:31:23.514Z,4.05
2023-04-19T13:33:50.628Z,4.63
2023-04-19T13:36:17.591Z,4.82
2023-04-19T13:38:45.789Z,4.57
2023-04-19T13:41:12.731Z,4.45
2023-04-19T13:43:39.786Z,4.85
2023-04-19T13:46:06.923Z,5.10
2023-04-19T13:48:33.938Z,4.35
2023-04-19T13:51:00.834Z,4.32
2023-04-19T13:53:29.322Z,4.20
2023-04-19T13:55:57.114Z,4.28
2023-04-19T13:58:26.890Z,3.50
2023-04-19T14:00:54.221Z,4.20
2023-04-19T14:03:23.291Z,4.22
2023-04-19T14:05:50.710Z,4.10
2023-04-19T14:08:17.604Z,4.10
2023-04-19T14:10:44.940Z,4.00
2023-04-19T14:13:12.108Z,4.60
2023-04-19T14:15:40.822Z,4.25
2023-04-19T14:18:07.849Z,4.75
2023-04-19T14:20:35.073Z,4.22
2023-04-19T14:23:02.570Z,4.38
2023-04-19T14:25:30.110Z,4.22
2023-04-19T14:27:58.155Z,4.22
2023-04-19T14:30:50.866Z,4.35
2023-04-19T14:33:17.794Z,4.20
2023-04-19T14:35:44.607Z,3.78
2023-04-19T14:38:11.728Z,4.15
2023-04-19T14:40:38.567Z,4.00
2023-04-19T14:43:06.996Z,3.83
2023-04-19T14:45:33.939Z,4.40
2023-04-19T14:48:00.941Z,3.45
2023-04-19T14:50:27.824Z,4.63
2023-04-19T14:52:54.771Z,3.50
2023-04-19T14:55:22.729Z,3.63
2023-04-19T14:57:49.655Z,4.45
2023-04-19T15:00:17.028Z,3.50
2023-04-19T15:02:44.570Z,4.35
2023-04-19T15:05:15.159Z,3.80
2023-04-19T15:07:45.080Z,3.95
2023-04-19T15:10:13.636Z,4.13
2023-04-19T15:12:40.534Z,4.10
2023-04-19T15:15:10.048Z,3.15
2023-04-19T15:17:37.479Z,4.07
2023-04-19T15:20:05.984Z,3.30
2023-04-19T15:22:36.528Z,3.88
2023-04-19T15:25:03.806Z,3.05
2023-04-19T15:27:32.418Z,3.05
2023-04-19T15:30:00.562Z,2.83
2023-04-19T15:32:30.220Z,3.33
2023-04-19T15:34:57.162Z,2.75
2023-04-19T15:37:24.070Z,2.90
2023-04-19T15:39:51.433Z,3.42
2023-04-19T15:42:18.304Z,3.15
2023-04-19T15:44:45.242Z,3.00
2023-04-19T15:47:12.084Z,3.15
2023-04-19T15:49:40.888Z,3.05
2023-04-19T15:52:11.045Z,2.90
2023-04-19T15:54:38.588Z,2.67
2023-04-19T15:57:05.850Z,2.67
2023-04-19T15:59:33.536Z,3.63
2023-04-19T16:02:00.647Z,3.22
2023-04-19T16:04:28.077Z,3.15
2023-04-19T16:06:57.845Z,3.00
2023-04-19T16:09:29.039Z,2.78
2023-04-19T16:11:56.332Z,2.97
2023-04-19T16:14:23.926Z,3.67
2023-04-19T16:16:51.052Z,3.42
2023-04-19T16:19:27.006Z,3.17
2023-04-19T16:21:54.912Z,3.28
2023-04-19T16:24:21.774Z,3.97
2023-04-19T16:26:48.988Z,4.25
2023-04-19T16:29:16.133Z,3.80
2023-04-19T16:31:43.337Z,3.58
2023-04-19T16:34:10.712Z,4.13
2023-04-19T16:36:37.622Z,4.30
2023-04-19T16:39:04.604Z,4.38
2023-04-19T16:41:31.599Z,4.10
2023-04-19T16:43:58.817Z,4.10
2023-04-19T16:46:26.140Z,4.13
2023-04-19T16:48:53.123Z,3.88
2023-04-19T16:51:19.930Z,4.20
2023-04-19T16:53:50.217Z,4.10
2023-04-19T16:56:18.860Z,4.18
2023-04-19T16:58:46.894Z,4.28
2023-04-19T17:01:16.945Z,3.80
2023-04-19T17:03:45.036Z,4.30
2023-04-19T17:06:11.977Z,4.35
2023-04-19T17:08:38.777Z,4.70
2023-04-19T17:11:05.757Z,4.80
2023-04-19T17:13:32.571Z,4.97
2023-04-19T17:15:59.471Z,4.25
2023-04-19T17:18:26.338Z,4.90
2023-04-19T17:20:53.536Z,5.32
2023-04-19T17:23:21.236Z,5.43
2023-04-19T17:25:48.003Z,5.05
2023-04-19T17:28:14.845Z,4.97
2023-04-19T17:30:41.802Z,4.95
2023-04-19T17:33:08.685Z,4.50
2023-04-19T17:35:38.024Z,5.00
2023-04-19T17:38:04.951Z,4.80
2023-04-19T17:40:31.848Z,4.68
2023-04-19T17:42:58.653Z,4.88
2023-04-19T17:45:27.049Z,5.05
2023-04-19T17:47:56.210Z,4.70
2023-04-19T17:50:23.469Z,5.20
2023-04-19T17:52:50.404Z,4.70
2023-04-19T17:55:17.224Z,4.72
2023-04-19T17:57:46.912Z,4.72
2023-04-19T18:00:15.232Z,5.00
2023-04-19T18:02:42.146Z,5.10
2023-04-19T18:05:09.375Z,4.60
2023-04-19T18:07:42.038Z,4.72
2023-04-19T18:10:09.475Z,4.28
2023-04-19T18:12:36.683Z,4.53
2023-04-19T18:15:04.113Z,5.05
2023-04-19T18:17:32.203Z,5.03
2023-04-19T18:19:59.331Z,4.80
2023-04-19T18:22:26.877Z,4.22
2023-04-19T18:24:53.921Z,5.20
2023-04-19T18:27:21.321Z,5.20
2023-04-19T18:29:52.473Z,5.13
2023-04-19T18:32:21.870Z,5.20
2023-04-19T18:34:49.074Z,5.00
2023-04-19T18:37:16.820Z,5.30
2023-04-19T18:39:44.362Z,5.10
2023-04-19T18:42:11.877Z,4.68
2023-04-19T18:44:52.948Z,5.03
2023-04-19T18:47:21.855Z,4.83
2023-04-19T18:50:02.670Z,4.43
2023-04-19T18:52:34.512Z,4.68
2023-04-19T18:55:01.669Z,5.05
2023-04-19T18:57:34.162Z,4.60
2023-04-19T19:00:03.648Z,5.07
2023-04-19T19:02:34.594Z,4.70
2023-04-19T19:05:02.497Z,5.63
2023-04-19T19:10:03.553Z,4.35
2023-04-19T19:12:39.723Z,5.45
2023-04-19T19:15:08.664Z,5.22
2023-04-19T19:17:35.711Z,5.07
2023-04-19T19:20:02.911Z,5.13
2023-04-19T19:22:31.219Z,7.90
2023-04-19T19:25:00.635Z,5.80
2023-04-19T19:27:28.283Z,5.75
2023-04-19T19:29:55.327Z,5.63
2023-04-19T19:32:22.408Z,5.38
2023-04-19T19:34:56.320Z,5.80
2023-04-19T19:37:31.129Z,5.72
2023-04-19T19:40:02.726Z,5.38
2023-04-19T19:42:31.252Z,5.35
2023-04-19T19:44:58.308Z,5.60
2023-04-19T19:47:30.943Z,6.38
2023-04-19T19:52:32.029Z,6.35
2023-04-19T19:54:59.615Z,7.03
2023-04-19T20:00:00.397Z,7.10
2023-04-19T20:02:54.770Z,7.10
2023-04-19T20:05:23.944Z,8.18
2023-04-19T20:10:21.032Z,7.22
2023-04-19T20:12:47.998Z,7.28
2023-04-19T20:15:14.968Z,8.15
2023-04-19T20:17:42.135Z,7.97
2023-04-19T20:20:11.220Z,7.40
2023-04-19T20:22:38.616Z,8.82
2023-04-19T20:25:06.131Z,8.82
2023-04-19T20:27:33.805Z,8.68
2023-04-19T20:30:07.410Z,8.73
2023-04-19T20:32:36.513Z,7.88
2023-04-19T20:35:10.188Z,8.77
2023-04-19T20:37:39.934Z,8.65
2023-04-19T20:40:09.723Z,8.80
2023-04-19T20:42:38.378Z,8.02
2023-04-19T20:45:07.105Z,8.40
2023-04-19T20:47:34.165Z,8.50
2023-04-19T20:50:01.188Z,8.10
2023-04-19T20:52:30.140Z,8.38
2023-04-19T20:54:59.859Z,8.75
2023-04-19T20:57:27.520Z,8.80
2023-04-19T20:59:54.463Z,8.80
2023-04-19T21:02:21.403Z,8.30
2023-04-19T21:04:49.341Z,8.25
2023-04-19T21:07:16.200Z,8.18
2023-04-19T21:09:43.079Z,8.75
2023-04-19T21:12:09.929Z,8.73
2023-04-19T21:14:36.782Z,9.00
2023-04-19T21:17:04.334Z,8.18
2023-04-19T21:19:31.542Z,8.32
2023-04-19T21:21:59.433Z,8.18
2023-04-19T21:24:26.376Z,8.63
2023-04-19T21:26:53.264Z,8.73
2023-04-19T21:29:21.076Z,9.27
2023-04-19T21:31:48.312Z,9.02
2023-04-19T21:34:15.102Z,9.32
2023-04-19T21:36:41.993Z,9.02
2023-04-19T21:39:10.280Z,9.27
2023-04-19T21:41:38.449Z,8.88
2023-04-19T21:44:05.491Z,9.60
2023-04-19T21:46:35.653Z,9.80
2023-04-19T21:49:03.643Z,9.98
2023-04-19T21:51:31.962Z,8.98
2023-04-19T21:53:58.865Z,9.27
2023-04-19T21:56:25.691Z,9.13
2023-04-19T21:58:53.721Z,9.85
2023-04-19T22:01:20.707Z,9.20
2023-04-19T22:03:47.948Z,9.18
2023-04-19T22:06:17.131Z,9.45
2023-04-19T22:08:45.593Z,8.82
2023-04-19T22:11:12.570Z,10.02
2023-04-19T22:13:40.268Z,9.82
2023-04-19T22:16:08.309Z,10.57
2023-04-19T22:18:35.884Z,10.52
2023-04-19T22:21:02.894Z,9.38
2023-04-19T22:23:29.726Z,10.68
2023-04-19T22:25:56.582Z,9.45
2023-04-19T22:28:25.816Z,10.13
2023-04-19T22:30:52.677Z,10.57
2023-04-19T22:33:24.405Z,9.43
2023-04-19T22:35:51.415Z,10.60
2023-04-19T22:38:21.296Z,9.98
2023-04-19T22:40:48.099Z,8.75
2023-04-19T22:43:14.914Z,10.23
2023-04-19T22:45:48.155Z,9.88
2023-04-19T22:48:15.492Z,9.75
2023-04-19T22:50:42.594Z,10.88
2023-04-19T22:53:12.676Z,9.80
2023-04-19T22:55:43.140Z,9.88
2023-04-19T22:58:10.229Z,10.13
2023-04-19T23:00:37.814Z,10.90
2023-04-19T23:03:05.156Z,10.85
2023-04-19T23:05:32.098Z,10.98
2023-04-19T23:07:59.379Z,11.05
2023-04-19T23:10:26.806Z,10.63
2023-04-19T23:12:54.976Z,10.63
2023-04-19T23:15:23.169Z,10.48
2023-04-19T23:17:50.828Z,10.55
2023-04-19T23:20:17.734Z,10.95
2023-04-19T23:22:44.609Z,10.75
2023-04-19T23:25:11.461Z,12.85
2023-04-19T23:27:38.380Z,10.25
2023-04-19T23:30:07.871Z,11.02
2023-04-19T23:32:36.029Z,10.73
2023-04-19T23:35:03.468Z,11.25
2023-04-19T23:37:31.112Z,11.38
2023-04-19T23:39:58.012Z,12.00
2023-04-19T23:42:24.830Z,10.57
2023-04-19T23:44:54.493Z,11.05
2023-04-19T23:47:21.998Z,10.93
2023-04-19T23:49:49.048Z,11.77
2023-04-19T23:52:16.065Z,11.27
2023-04-19T23:54:43.032Z,12.38
2023-04-19T23:57:09.924Z,12.23
2023-04-19T23:59:36.766Z,10.63
